Time;durP1;ratioP1;P1;durP2;ratioP2;P2;SDS_P1;SDS_P2;PMS_P1;PMS_P2;Temp;Humidity;BMP_temperature;BMP_pressure;BME280_temperature;BME280_humidity;BME280_pressure;Samples;Min_cycle;Max_cycle;Signal;HPM_P1;HPM_P2
2021/06/12 00:02:28;;;;;;;10.97;9.63;;;20.90;97.30;;;;;;4900861;29;20457;-90
2021/06/12 00:04:54;;;;;;;13.50;10.07;;;20.90;97.30;;;;;;4898535;29;20205;-90
2021/06/12 00:07:23;;;;;;;11.40;9.80;;;20.90;97.30;;;;;;4921752;29;20420;-90
2021/06/12 00:09:56;;;;;;;11.53;9.37;;;20.80;97.30;;;;;;4904738;29;20691;-90
2021/06/12 00:12:30;;;;;;;14.77;10.20;;;20.80;97.30;;;;;;4904996;29;20420;-90
2021/06/12 00:15:28;;;;;;;14.60;11.03;;;20.70;97.30;;;;;;4904409;29;20532;-90
2021/06/12 00:17:54;;;;;;;14.70;9.77;;;20.70;97.30;;;;;;4879929;29;20429;-90
2021/06/12 00:20:23;;;;;;;16.90;10.87;;;20.60;97.30;;;;;;4903243;29;20428;-89
2021/06/12 00:22:49;;;;;;;11.17;9.77;;;20.60;97.30;;;;;;4903795;29;20424;-90
2021/06/12 00:25:19;;;;;;;15.77;10.90;;;20.50;97.30;;;;;;4903647;29;20993;-90
2021/06/12 00:27:45;;;;;;;20.70;11.40;;;20.50;97.30;;;;;;4902201;29;20180;-90
2021/06/12 00:30:11;;;;;;;15.10;10.80;;;20.40;97.30;;;;;;4902076;29;20463;-90
2021/06/12 00:32:38;;;;;;;14.20;11.30;;;20.40;97.30;;;;;;4902024;29;20259;-86
2021/06/12 00:35:08;;;;;;;16.07;11.20;;;20.30;97.30;;;;;;4901782;29;20968;-90
2021/06/12 00:37:33;;;;;;;13.27;11.07;;;20.30;97.30;;;;;;4901864;29;20425;-90
2021/06/12 00:39:59;;;;;;;14.00;11.80;;;20.20;97.30;;;;;;4901651;29;20455;-90
2021/06/12 00:42:25;;;;;;;18.20;12.07;;;20.20;97.30;;;;;;4901693;29;20184;-90
2021/06/12 00:44:51;;;;;;;17.30;11.87;;;20.20;97.30;;;;;;4901571;29;20473;-90
2021/06/12 00:47:17;;;;;;;16.07;13.93;;;20.20;97.30;;;;;;4919553;29;20180;-90
2021/06/12 00:49:42;;;;;;;15.50;12.47;;;20.10;97.30;;;;;;4902312;29;20452;-90
2021/06/12 00:52:08;;;;;;;18.70;13.03;;;20.10;97.30;;;;;;4901595;29;20188;-90
2021/06/12 00:54:35;;;;;;;17.50;13.27;;;20.10;97.30;;;;;;4903129;29;20203;-90
2021/06/12 00:57:03;;;;;;;17.07;13.67;;;20.00;97.30;;;;;;4901943;29;20224;-89
2021/06/12 00:59:28;;;;;;;20.77;14.03;;;20.00;97.30;;;;;;4902740;29;20428;-91
2021/06/12 01:01:54;;;;;;;16.67;13.50;;;19.90;97.30;;;;;;4903631;29;20428;-90
2021/06/12 01:04:19;;;;;;;19.80;13.03;;;19.90;97.30;;;;;;4903676;29;20235;-90
2021/06/12 01:06:50;;;;;;;17.40;13.93;;;19.80;97.30;;;;;;4903372;29;20244;-90
2021/06/12 01:09:17;;;;;;;18.30;13.50;;;19.80;97.30;;;;;;4904874;29;20200;-90
2021/06/12 01:11:54;;;;;;;19.90;15.63;;;19.80;97.30;;;;;;4904094;29;20421;-90
2021/06/12 01:14:23;;;;;;;18.13;13.93;;;19.80;97.30;;;;;;4903828;29;20464;-90
2021/06/12 01:17:11;;;;;;;15.60;13.80;;;19.70;97.30;;;;;;4920829;29;20928;-90
2021/06/12 01:20:01;;;;;;;18.17;13.47;;;19.70;97.30;;;;;;4905040;29;20425;-90
2021/06/12 01:22:47;;;;;;;22.37;14.90;;;19.70;97.30;;;;;;4903586;29;20428;-90
2021/06/12 01:25:54;;;;;;;19.30;14.43;;;19.60;97.30;;;;;;4866643;29;20477;-90
2021/06/12 01:28:40;;;;;;;17.80;14.30;;;19.60;97.30;;;;;;4903723;29;20496;-90
2021/06/12 01:31:08;;;;;;;17.77;14.20;;;19.60;97.30;;;;;;4904295;29;20635;-90
2021/06/12 01:33:36;;;;;;;20.40;14.53;;;19.60;97.30;;;;;;4904702;29;20432;-90
2021/06/12 01:36:05;;;;;;;19.87;13.43;;;19.60;97.30;;;;;;4904170;29;20483;-90
2021/06/12 01:38:34;;;;;;;17.37;14.57;;;19.70;97.30;;;;;;4903834;29;20408;-90
2021/06/12 01:41:03;;;;;;;18.57;14.63;;;19.70;97.30;;;;;;4903773;29;20460;-91
2021/06/12 01:43:30;;;;;;;22.33;14.40;;;19.70;97.30;;;;;;4903274;29;20481;-90
2021/06/12 01:45:57;;;;;;;21.50;15.53;;;19.70;97.30;;;;;;4902737;29;20483;-90
2021/06/12 01:48:23;;;;;;;19.23;15.23;;;19.70;97.30;;;;;;4902406;29;20980;-90
2021/06/12 01:50:49;;;;;;;21.83;15.00;;;19.70;97.30;;;;;;4904637;29;20468;-90
2021/06/12 01:53:18;;;;;;;18.30;14.87;;;19.70;97.30;;;;;;4902988;29;20425;-89
2021/06/12 01:55:46;;;;;;;20.27;16.73;;;19.70;97.30;;;;;;4902669;29;20448;-90
2021/06/12 01:58:18;;;;;;;20.80;16.40;;;19.70;97.30;;;;;;4920834;29;20417;-90
2021/06/12 02:00:45;;;;;;;22.10;14.87;;;19.80;97.30;;;;;;4904117;29;20998;-90
2021/06/12 02:03:11;;;;;;;23.73;15.47;;;19.80;97.30;;;;;;4903461;29;20442;-90
2021/06/12 02:05:37;;;;;;;20.80;15.23;;;19.80;97.30;;;;;;4903614;29;20812;-90
2021/06/12 02:08:04;;;;;;;21.97;15.30;;;19.80;97.30;;;;;;4902939;29;20428;-90
2021/06/12 02:10:31;;;;;;;31.83;16.20;;;19.70;97.30;;;;;;4918934;29;20455;-90
2021/06/12 02:12:58;;;;;;;22.93;17.37;;;19.70;97.30;;;;;;4902433;29;20488;-92
2021/06/12 02:15:27;;;;;;;21.83;18.20;;;19.60;97.30;;;;;;4907222;29;20429;-91
2021/06/12 02:17:55;;;;;;;32.33;19.80;;;19.60;97.30;;;;;;4923397;29;20409;-91
2021/06/12 02:20:21;;;;;;;29.80;19.00;;;19.60;97.30;;;;;;4908120;29;20436;-91
2021/06/12 02:22:49;;;;;;;29.33;19.23;;;19.50;97.30;;;;;;4904514;29;20417;-92
2021/06/12 02:25:16;;;;;;;26.00;19.60;;;19.50;97.30;;;;;;4904799;29;20531;-91
2021/06/12 02:27:55;;;;;;;27.10;19.90;;;19.50;97.30;;;;;;4907159;29;20476;-91
2021/06/12 02:30:26;;;;;;;34.70;19.07;;;19.40;97.30;;;;;;4907022;29;20467;-92
2021/06/12 02:33:00;;;;;;;25.93;19.10;;;19.40;97.30;;;;;;4906416;29;20460;-91
2021/06/12 02:35:26;;;;;;;22.00;16.73;;;19.40;97.30;;;;;;4906411;29;20443;-91
2021/06/12 02:37:52;;;;;;;25.17;17.93;;;19.40;97.30;;;;;;4906315;29;20971;-92
2021/06/12 02:40:17;;;;;;;23.40;17.80;;;19.40;97.30;;;;;;4906320;29;20180;-91
2021/06/12 02:42:43;;;;;;;24.30;19.07;;;19.40;97.30;;;;;;4906957;29;20476;-91
2021/06/12 02:45:10;;;;;;;27.30;19.50;;;19.40;97.30;;;;;;4909404;29;20236;-92
2021/06/12 02:47:41;;;;;;;26.10;19.47;;;19.40;97.30;;;;;;4927378;29;20181;-91
2021/06/12 02:50:09;;;;;;;28.40;19.40;;;19.40;97.30;;;;;;4909324;29;20464;-92
2021/06/12 02:52:37;;;;;;;26.67;19.03;;;19.40;97.30;;;;;;4910876;29;20424;-92
2021/06/12 02:55:07;;;;;;;23.67;18.13;;;19.40;97.30;;;;;;4911890;29;20508;-91
2021/06/12 02:57:35;;;;;;;29.33;20.63;;;19.40;97.30;;;;;;4912242;29;20479;-92
2021/06/12 03:00:02;;;;;;;27.23;18.40;;;19.50;97.30;;;;;;4912384;29;20429;-92
2021/06/12 03:02:31;;;;;;;29.43;20.17;;;19.40;97.30;;;;;;4913884;29;20454;-91
2021/06/12 03:04:59;;;;;;;23.40;17.70;;;19.50;97.30;;;;;;4912177;29;20825;-92
2021/06/12 03:07:26;;;;;;;30.53;17.77;;;19.50;97.30;;;;;;4911797;29;20515;-90
2021/06/12 03:09:52;;;;;;;26.27;17.07;;;19.50;97.30;;;;;;4917136;29;20452;-90
2021/06/12 03:12:19;;;;;;;25.10;17.83;;;19.50;97.30;;;;;;4917959;29;20400;-91
2021/06/12 03:14:48;;;;;;;27.70;17.43;;;19.50;97.30;;;;;;4918565;29;20279;-91
2021/06/12 03:17:14;;;;;;;29.03;20.07;;;19.50;97.30;;;;;;4918521;29;20448;-91
2021/06/12 03:19:41;;;;;;;23.83;18.03;;;19.50;97.30;;;;;;4920418;29;20435;-92
2021/06/12 03:22:19;;;;;;;26.80;18.13;;;19.40;97.30;;;;;;4929603;29;20427;-92
2021/06/12 03:24:48;;;;;;;28.23;17.53;;;19.40;97.30;;;;;;5066285;23;20519;-92
2021/06/12 03:33:28;;;;;;;29.90;18.70;;;19.40;97.30;;;;;;4894168;29;20407;-91
2021/06/12 03:35:55;;;;;;;22.90;17.20;;;19.40;97.30;;;;;;4894504;29;20417;-91
2021/06/12 03:38:24;;;;;;;23.93;17.70;;;19.40;97.30;;;;;;4912544;29;20438;-91
2021/06/12 03:40:51;;;;;;;23.50;17.63;;;19.40;97.30;;;;;;4910858;29;20429;-92
2021/06/12 03:43:18;;;;;;;21.80;16.23;;;19.40;97.30;;;;;;4912695;29;20433;-91
2021/06/12 03:45:46;;;;;;;22.80;16.70;;;19.40;97.30;;;;;;4914139;29;20478;-91
2021/06/12 03:48:13;;;;;;;27.83;17.93;;;19.40;97.30;;;;;;4914331;29;20410;-91
2021/06/12 03:50:40;;;;;;;25.07;16.93;;;19.40;97.30;;;;;;4911930;29;20465;-91
2021/06/12 03:53:06;;;;;;;27.13;17.83;;;19.40;97.30;;;;;;4913569;29;20410;-91
2021/06/12 03:55:35;;;;;;;25.27;17.00;;;19.40;97.30;;;;;;4915136;29;20434;-91
2021/06/12 03:58:04;;;;;;;23.50;16.63;;;19.40;97.30;;;;;;4917846;29;20465;-91
2021/06/12 04:00:30;;;;;;;21.30;15.63;;;19.40;97.30;;;;;;4900309;29;20449;-91
2021/06/12 04:06:59;;;;;;;20.13;15.30;;;19.40;97.30;;;;;;4840235;29;20434;-92
2021/06/12 04:10:05;;;;;;;19.70;15.40;;;19.40;97.30;;;;;;4843191;29;20433;-91
2021/06/12 04:15:18;;;;;;;19.60;14.40;;;19.40;97.30;;;;;;5048174;23;20498;-92
2021/06/12 04:17:45;;;;;;;21.93;14.97;;;19.40;97.30;;;;;;4926162;29;20420;-92
2021/06/12 04:20:12;;;;;;;23.20;15.83;;;19.40;97.30;;;;;;4932039;29;20187;-92
2021/06/12 04:22:37;;;;;;;21.03;14.43;;;19.50;97.30;;;;;;4914914;29;20507;-92
2021/06/12 04:25:34;;;;;;;26.10;15.07;;;19.50;97.30;;;;;;4929863;29;20459;-91
2021/06/12 04:33:44;;;;;;;23.63;16.00;;;19.50;97.30;;;;;;4978207;23;20908;-92
2021/06/12 04:36:09;;;;;;;20.80;15.27;;;19.40;97.30;;;;;;4921100;29;20423;-91
2021/06/12 04:38:43;;;;;;;23.33;14.73;;;19.50;97.30;;;;;;4920878;29;20424;-92
2021/06/12 04:41:09;;;;;;;19.03;14.10;;;19.50;97.30;;;;;;4921870;29;20618;-92
2021/06/12 04:43:34;;;;;;;24.90;14.93;;;19.50;97.30;;;;;;4920335;29;20427;-90
2021/06/12 04:46:00;;;;;;;19.90;14.20;;;19.60;97.30;;;;;;4920388;29;20188;-90
2021/06/12 04:48:25;;;;;;;20.00;13.47;;;19.60;97.30;;;;;;4919945;29;20188;-91
2021/06/12 04:50:51;;;;;;;19.60;14.10;;;19.70;97.30;;;;;;4919490;29;20215;-91
2021/06/12 04:53:16;;;;;;;23.87;14.20;;;19.70;97.30;;;;;;4919576;29;20187;-91
2021/06/12 04:55:43;;;;;;;18.23;13.83;;;19.80;97.30;;;;;;4919940;29;20179;-91
2021/06/12 04:58:10;;;;;;;17.47;13.30;;;19.80;97.30;;;;;;4936929;29;20200;-91
2021/06/12 05:00:36;;;;;;;25.23;15.77;;;19.90;97.30;;;;;;4919205;29;20450;-90
2021/06/12 05:03:02;;;;;;;21.33;15.90;;;19.90;97.30;;;;;;4919042;29;20500;-90
2021/06/12 05:05:28;;;;;;;18.37;14.47;;;20.00;97.30;;;;;;4929239;29;20918;-90
2021/06/12 05:07:53;;;;;;;19.73;14.67;;;20.00;97.30;;;;;;4915409;29;20437;-90
2021/06/12 05:10:19;;;;;;;20.13;14.73;;;20.10;97.30;;;;;;4900963;29;20216;-90
2021/06/12 05:12:44;;;;;;;15.77;13.70;;;20.10;97.30;;;;;;4900926;29;20185;-90
2021/06/12 05:15:49;;;;;;;20.13;14.57;;;20.10;97.30;;;;;;4903933;29;20220;-90
2021/06/12 05:25:34;;;;;;;20.80;14.63;;;20.40;97.30;;;;;;4878912;29;20429;-90
2021/06/12 05:27:59;;;;;;;19.17;13.80;;;20.50;97.30;;;;;;4901861;29;20416;-90
2021/06/12 05:30:25;;;;;;;20.10;13.43;;;20.50;97.30;;;;;;4901450;29;20464;-90
2021/06/12 05:32:51;;;;;;;18.90;13.50;;;20.50;97.30;;;;;;4900637;29;20682;-89
2021/06/12 05:35:16;;;;;;;20.43;13.47;;;20.60;97.30;;;;;;4887081;29;20235;-90
2021/06/12 05:37:43;;;;;;;18.83;13.67;;;20.60;97.30;;;;;;4882295;29;20557;-89
2021/06/12 05:40:10;;;;;;;20.87;13.57;;;20.60;97.30;;;;;;4884646;29;20201;-89
2021/06/12 05:42:38;;;;;;;18.30;13.07;;;20.60;97.30;;;;;;4893555;29;20446;-90
2021/06/12 05:45:07;;;;;;;21.07;12.43;;;20.60;97.30;;;;;;4893735;29;20816;-89
2021/06/12 05:47:32;;;;;;;18.17;13.00;;;20.60;97.30;;;;;;4896777;29;20429;-90
2021/06/12 05:49:58;;;;;;;16.63;13.57;;;20.60;97.30;;;;;;4900926;29;20574;-90
2021/06/12 05:52:24;;;;;;;25.43;12.80;;;20.60;97.30;;;;;;4900808;29;20180;-90
2021/06/12 05:54:49;;;;;;;21.77;12.17;;;20.60;97.30;;;;;;4901887;29;20192;-90
2021/06/12 05:57:15;;;;;;;22.13;13.40;;;20.60;97.30;;;;;;4882871;29;20434;-90
2021/06/12 05:59:40;;;;;;;16.70;12.77;;;20.70;97.30;;;;;;4886042;29;20215;-90
2021/06/12 06:02:06;;;;;;;17.73;12.50;;;20.70;97.30;;;;;;4889717;29;20185;-91
2021/06/12 06:04:32;;;;;;;16.67;11.90;;;20.70;97.30;;;;;;4896296;29;20270;-91
2021/06/12 06:06:57;;;;;;;14.73;11.47;;;20.80;97.30;;;;;;4901540;29;20436;-91
2021/06/12 06:09:23;;;;;;;19.67;11.77;;;20.80;97.30;;;;;;4892143;29;20204;-91
2021/06/12 06:11:48;;;;;;;14.50;10.53;;;20.90;97.30;;;;;;4900546;29;20199;-91
2021/06/12 06:14:15;;;;;;;16.70;11.17;;;20.90;97.30;;;;;;4896307;29;20211;-90
2021/06/12 06:16:41;;;;;;;14.63;10.10;;;20.90;97.30;;;;;;4890339;29;20180;-91
2021/06/12 06:19:08;;;;;;;16.20;10.77;;;21.00;97.30;;;;;;4882710;29;20465;-90
2021/06/12 06:21:34;;;;;;;13.10;10.10;;;21.00;97.30;;;;;;4890857;29;20184;-92
2021/06/12 06:23:59;;;;;;;13.80;10.47;;;21.00;97.30;;;;;;4892678;29;20564;-92
2021/06/12 06:26:25;;;;;;;12.90;8.50;;;21.10;97.30;;;;;;4887280;29;20193;-91
2021/06/12 06:28:50;;;;;;;14.17;9.57;;;21.10;97.30;;;;;;4881995;29;20667;-89
2021/06/12 06:31:16;;;;;;;15.30;9.80;;;21.20;97.30;;;;;;4880844;29;20300;-91
2021/06/12 06:33:42;;;;;;;11.80;8.70;;;21.20;97.30;;;;;;4884707;29;20216;-91
2021/06/12 06:36:08;;;;;;;18.47;9.67;;;21.30;97.30;;;;;;4911239;29;20176;-91
2021/06/12 06:38:33;;;;;;;10.60;8.97;;;21.30;97.30;;;;;;4914791;29;20428;-92
2021/06/12 06:40:59;;;;;;;12.33;9.50;;;21.30;97.30;;;;;;4913160;29;20672;-90
2021/06/12 06:43:25;;;;;;;16.20;9.30;;;21.40;97.30;;;;;;4917727;29;20176;-91
2021/06/12 06:45:50;;;;;;;17.10;9.57;;;21.40;97.30;;;;;;4918401;29;20183;-90
2021/06/12 06:48:16;;;;;;;11.07;8.40;;;21.50;97.30;;;;;;4917945;29;20184;-91
2021/06/12 06:50:44;;;;;;;10.13;8.27;;;21.50;97.30;;;;;;4911236;29;20220;-91
2021/06/12 06:53:09;;;;;;;13.23;9.17;;;21.50;97.30;;;;;;4923221;29;20498;-90
2021/06/12 06:55:35;;;;;;;13.90;10.03;;;21.50;97.30;;;;;;4915134;29;20463;-91
2021/06/12 06:58:01;;;;;;;12.73;9.67;;;21.40;97.30;;;;;;4905435;29;20184;-91
2021/06/12 07:00:29;;;;;;;13.70;9.87;;;21.40;97.30;;;;;;4917895;29;20435;-91
2021/06/12 07:02:55;;;;;;;14.33;9.77;;;21.30;97.30;;;;;;4918525;29;20180;-91
2021/06/12 07:05:21;;;;;;;19.17;10.77;;;21.20;97.30;;;;;;4919931;29;20423;-91
2021/06/12 07:07:47;;;;;;;13.00;9.83;;;21.20;97.30;;;;;;4919779;29;20416;-92
2021/06/12 07:10:14;;;;;;;14.87;9.60;;;21.20;97.30;;;;;;4919677;29;20889;-91
2021/06/12 07:12:40;;;;;;;12.33;9.50;;;21.30;97.30;;;;;;4921381;29;20543;-91
2021/06/12 07:15:08;;;;;;;14.70;10.37;;;21.40;97.30;;;;;;4922714;29;20456;-91
2021/06/12 07:17:34;;;;;;;13.43;9.37;;;21.50;97.30;;;;;;4926378;29;20422;-91
2021/06/12 07:20:00;;;;;;;16.87;10.40;;;21.60;97.30;;;;;;4927125;29;20440;-91
2021/06/12 07:22:27;;;;;;;12.90;8.60;;;21.70;97.30;;;;;;4919610;29;21384;-91
2021/06/12 07:24:58;;;;;;;12.40;9.60;;;21.80;97.30;;;;;;4917856;29;20439;-90
2021/06/12 07:27:24;;;;;;;12.33;9.83;;;21.90;97.30;;;;;;4933271;29;20415;-90
2021/06/12 07:29:50;;;;;;;13.73;8.50;;;22.00;97.30;;;;;;4924089;29;20512;-91
2021/06/12 07:32:15;;;;;;;13.27;8.63;;;22.00;97.30;;;;;;4919485;29;20247;-92
2021/06/12 07:34:41;;;;;;;14.70;9.47;;;22.20;97.30;;;;;;4925141;29;20220;-92
2021/06/12 07:37:08;;;;;;;13.50;9.63;;;22.30;97.30;;;;;;4933415;29;20211;-91
2021/06/12 07:39:34;;;;;;;11.90;8.97;;;22.30;97.30;;;;;;4905584;29;20201;-91
2021/06/12 07:42:00;;;;;;;13.90;9.17;;;22.40;97.30;;;;;;4914392;29;20427;-91
2021/06/12 07:44:25;;;;;;;12.90;8.63;;;22.50;97.30;;;;;;4934157;29;20178;-93
2021/06/12 07:46:51;;;;;;;13.00;9.33;;;22.60;97.30;;;;;;4924434;29;20179;-90
2021/06/12 07:49:17;;;;;;;15.40;9.40;;;22.70;97.30;;;;;;4922145;29;20206;-91
2021/06/12 07:51:43;;;;;;;14.47;10.37;;;22.80;97.30;;;;;;4919947;29;20196;-90
2021/06/12 07:54:09;;;;;;;13.37;9.13;;;22.80;97.30;;;;;;4921362;29;20173;-90
2021/06/12 07:56:35;;;;;;;18.03;10.77;;;22.80;97.30;;;;;;4925549;29;20982;-91
2021/06/12 07:59:01;;;;;;;13.90;9.77;;;22.80;97.30;;;;;;4937075;29;20196;-91
2021/06/12 08:01:27;;;;;;;12.10;8.83;;;22.80;97.30;;;;;;4935812;29;20800;-92
2021/06/12 08:03:53;;;;;;;17.73;10.10;;;22.80;97.30;;;;;;4927698;29;20183;-92
2021/06/12 08:06:18;;;;;;;16.00;9.70;;;22.90;97.30;;;;;;4923798;29;20428;-92
2021/06/12 08:08:44;;;;;;;13.23;10.00;;;23.00;97.30;;;;;;4934619;29;20767;-92
2021/06/12 08:11:09;;;;;;;16.00;10.60;;;23.10;97.30;;;;;;4917745;29;20271;-91
2021/06/12 08:13:38;;;;;;;14.33;9.27;;;23.10;97.30;;;;;;4930532;29;20183;-91
2021/06/12 08:16:05;;;;;;;14.40;9.67;;;23.10;97.30;;;;;;4921518;29;20195;-91
2021/06/12 08:18:31;;;;;;;14.20;10.17;;;23.20;97.30;;;;;;4902503;29;20420;-93
2021/06/12 08:21:02;;;;;;;12.23;10.00;;;23.20;97.20;;;;;;4902152;29;20452;-92
2021/06/12 08:23:27;;;;;;;16.13;10.17;;;23.20;97.20;;;;;;4904163;29;20788;-92
2021/06/12 08:25:53;;;;;;;12.37;9.03;;;23.30;97.30;;;;;;4908913;29;20427;-92
2021/06/12 08:28:19;;;;;;;22.07;10.93;;;23.40;97.20;;;;;;4922507;29;20275;-92
2021/06/12 08:30:47;;;;;;;10.47;8.93;;;23.40;97.30;;;;;;4921333;29;20204;-92
2021/06/12 08:33:14;;;;;;;14.00;9.30;;;23.50;96.60;;;;;;4922374;29;20176;-91
2021/06/12 08:35:40;;;;;;;12.20;8.13;;;23.60;96.70;;;;;;4918129;29;20475;-92
2021/06/12 08:38:07;;;;;;;13.90;8.70;;;23.70;96.00;;;;;;4921099;29;20424;-92
2021/06/12 08:40:38;;;;;;;10.50;8.70;;;23.80;95.60;;;;;;4921902;29;20199;-92
2021/06/12 08:43:09;;;;;;;13.97;8.67;;;23.80;95.50;;;;;;4921633;29;20420;-92
2021/06/12 08:45:39;;;;;;;11.23;7.90;;;23.80;95.50;;;;;;4924755;29;20787;-93
2021/06/12 08:48:07;;;;;;;14.40;8.50;;;23.80;94.80;;;;;;4920781;29;20431;-93
2021/06/12 08:50:32;;;;;;;11.77;8.80;;;23.80;94.60;;;;;;4920189;29;20474;-92
2021/06/12 08:52:58;;;;;;;17.27;8.43;;;23.80;95.20;;;;;;4919770;29;20420;-93
2021/06/12 08:55:26;;;;;;;13.83;8.70;;;23.80;94.80;;;;;;4919525;29;20175;-91
2021/06/12 08:57:52;;;;;;;14.47;9.43;;;23.80;93.30;;;;;;4919471;29;20184;-92
2021/06/12 09:00:19;;;;;;;9.77;7.77;;;23.80;93.80;;;;;;4914097;29;20455;-92
2021/06/12 09:03:03;;;;;;;23.33;8.70;;;23.70;94.00;;;;;;4935679;29;20184;-92
2021/06/12 09:05:43;;;;;;;10.40;7.60;;;23.70;94.10;;;;;;4921011;29;20420;-91
2021/06/12 09:08:10;;;;;;;12.73;8.93;;;23.80;94.50;;;;;;4918555;29;20411;-91
2021/06/12 09:10:48;;;;;;;11.40;7.90;;;23.90;92.90;;;;;;4923619;29;20554;-91
2021/06/12 09:13:13;;;;;;;13.70;10.23;;;24.00;94.70;;;;;;4902292;29;20424;-91
2021/06/12 09:15:42;;;;;;;11.83;8.63;;;24.10;94.00;;;;;;4913914;29;20427;-90
2021/06/12 09:18:08;;;;;;;8.80;6.27;;;24.00;92.90;;;;;;4927300;29;20181;-93
2021/06/12 09:20:40;;;;;;;12.43;7.00;;;24.00;92.70;;;;;;4902309;29;20508;-92
2021/06/12 09:23:12;;;;;;;10.63;7.33;;;24.10;91.90;;;;;;4921287;29;20172;-92
2021/06/12 09:25:43;;;;;;;13.07;7.57;;;24.20;90.60;;;;;;4901327;29;20424;-92
2021/06/12 09:28:08;;;;;;;11.23;7.87;;;24.20;91.10;;;;;;4917418;29;20992;-93
2021/06/12 09:30:34;;;;;;;13.07;7.73;;;24.10;91.40;;;;;;4916943;29;20503;-92
2021/06/12 09:33:00;;;;;;;9.53;7.77;;;24.10;90.80;;;;;;4918425;29;20183;-91
2021/06/12 09:35:31;;;;;;;11.40;6.60;;;24.10;92.30;;;;;;4919609;29;20238;-91
2021/06/12 09:37:58;;;;;;;9.27;6.57;;;24.10;92.20;;;;;;4920125;29;20191;-92
2021/06/12 09:40:28;;;;;;;15.83;7.50;;;24.10;91.80;;;;;;4936956;29;20482;-92
2021/06/12 09:43:00;;;;;;;8.57;6.50;;;24.10;91.70;;;;;;4919334;29;20514;-92
2021/06/12 09:45:30;;;;;;;11.20;6.60;;;24.10;92.80;;;;;;4919929;29;20519;-93
2021/06/12 09:48:11;;;;;;;8.47;6.80;;;24.10;91.50;;;;;;4935423;29;20479;-94
2021/06/12 09:50:38;;;;;;;9.03;6.30;;;24.10;92.40;;;;;;4932519;29;20483;-89
2021/06/12 09:53:20;;;;;;;6.73;5.60;;;24.10;91.60;;;;;;4916646;29;20423;-94
2021/06/12 09:55:46;;;;;;;8.10;5.10;;;24.10;91.30;;;;;;4920960;29;20432;-93
2021/06/12 09:58:12;;;;;;;10.50;5.20;;;24.20;90.90;;;;;;4918916;29;20423;-92
2021/06/12 10:00:41;;;;;;;9.00;5.77;;;24.20;90.50;;;;;;4918643;29;20196;-90
2021/06/12 10:03:28;;;;;;;8.30;5.33;;;24.30;89.30;;;;;;4919167;29;20419;-92
2021/06/12 10:06:20;;;;;;;5.63;4.70;;;24.30;88.80;;;;;;4918854;29;20954;-93
2021/06/12 10:08:49;;;;;;;17.70;5.13;;;24.40;89.50;;;;;;4918375;29;20559;-93
2021/06/12 10:11:17;;;;;;;16.37;5.70;;;24.50;90.30;;;;;;4917959;29;20459;-92
2021/06/12 10:13:43;;;;;;;14.13;4.97;;;24.60;88.20;;;;;;4918533;29;20432;-93
2021/06/12 10:16:11;;;;;;;4.63;4.33;;;24.60;89.20;;;;;;4918077;29;20415;-93
2021/06/12 10:18:41;;;;;;;8.50;4.90;;;24.70;88.80;;;;;;4922738;29;20690;-90
2021/06/12 10:21:14;;;;;;;7.50;4.07;;;24.70;88.50;;;;;;4917313;29;20523;-93
2021/06/12 10:23:41;;;;;;;5.50;4.00;;;24.70;88.20;;;;;;4937506;29;20434;-91
2021/06/12 10:26:08;;;;;;;8.20;4.23;;;24.70;87.30;;;;;;4919255;29;20455;-91
2021/06/12 10:28:34;;;;;;;5.27;4.40;;;24.80;87.20;;;;;;4915928;29;20432;-90
2021/06/12 10:31:04;;;;;;;5.60;4.73;;;24.80;87.80;;;;;;4933056;29;20534;-92
2021/06/12 10:33:31;;;;;;;6.10;4.03;;;24.70;87.40;;;;;;4918209;29;20427;-90
2021/06/12 10:36:17;;;;;;;14.93;4.53;;;24.80;88.70;;;;;;4918616;29;20470;-93
2021/06/12 10:38:43;;;;;;;5.20;3.60;;;24.80;88.40;;;;;;4919309;29;20451;-91
2021/06/12 10:41:22;;;;;;;7.37;4.07;;;24.90;88.80;;;;;;4921487;29;20430;-94
2021/06/12 10:43:50;;;;;;;4.27;3.67;;;24.90;86.50;;;;;;4921935;29;20427;-93
2021/06/12 10:46:23;;;;;;;6.13;3.60;;;24.80;86.30;;;;;;4922194;29;20451;-93
2021/06/12 10:48:53;;;;;;;4.53;3.70;;;24.80;87.20;;;;;;4925789;29;20440;-92
2021/06/12 10:52:01;;;;;;;5.20;3.73;;;24.80;87.90;;;;;;4944520;28;20462;-94
2021/06/12 11:01:36;;;;;;;;;;;;;;;;;;;;;
2021/06/12 11:04:47;;;;;;;6.87;3.40;;;24.10;85.30;;;;;;4891958;29;20427;-92
2021/06/12 11:08:19;;;;;;;4.97;3.60;;;23.80;86.60;;;;;;4923601;29;20431;-92
2021/06/12 11:14:50;;;;;;;;;;;;;;;;;;;;;
2021/06/12 11:17:46;;;;;;;5.10;4.13;;;23.30;90.70;;;;;;4882973;29;20509;-95
2021/06/12 11:20:14;;;;;;;11.27;4.50;;;23.10;92.50;;;;;;4890548;23;20499;-76
2021/06/12 11:22:56;;;;;;;6.20;4.27;;;22.90;93.60;;;;;;4919699;29;20883;-77
2021/06/12 11:25:25;;;;;;;6.73;4.20;;;22.80;94.60;;;;;;4902051;29;20428;-76
2021/06/12 11:27:54;;;;;;;7.10;4.40;;;22.60;94.00;;;;;;4898363;29;20456;-76
2021/06/12 11:30:20;;;;;;;8.33;4.80;;;22.40;93.80;;;;;;4904354;29;20463;-77
2021/06/12 11:33:01;;;;;;;9.77;4.93;;;22.20;94.00;;;;;;4901325;29;20448;-77
2021/06/12 11:35:53;;;;;;;6.40;4.70;;;22.10;94.50;;;;;;4901424;29;20432;-76
2021/06/12 11:38:37;;;;;;;15.90;4.70;;;21.90;95.10;;;;;;4895963;29;20448;-76
2021/06/12 11:41:05;;;;;;;5.30;4.30;;;21.80;95.20;;;;;;4890127;29;20453;-77
2021/06/12 11:43:43;;;;;;;7.17;4.60;;;21.80;95.80;;;;;;4892629;29;20464;-78
2021/06/12 11:46:19;;;;;;;6.10;4.50;;;21.70;96.40;;;;;;4903760;29;20437;-77
2021/06/12 11:48:50;;;;;;;6.00;4.57;;;21.70;96.60;;;;;;4910311;29;20412;-76
2021/06/12 11:51:32;;;;;;;7.60;4.70;;;21.70;97.00;;;;;;4905044;23;20477;-74
2021/06/12 11:54:40;;;;;;;6.50;5.07;;;21.60;96.80;;;;;;4917398;29;20442;-75
2021/06/12 11:58:06;;;;;;;10.50;5.00;;;21.60;97.30;;;;;;4933349;29;20990;-74
2021/06/12 12:00:50;;;;;;;8.97;5.20;;;21.50;97.30;;;;;;4919852;29;20439;-74
2021/06/12 12:03:39;;;;;;;7.40;4.83;;;21.50;97.30;;;;;;4935817;29;20505;-74
2021/06/12 12:06:21;;;;;;;6.10;5.17;;;21.50;97.30;;;;;;4936839;29;20494;-74
2021/06/12 12:08:59;;;;;;;14.03;5.60;;;21.50;97.30;;;;;;4933829;29;20422;-74
2021/06/12 12:11:59;;;;;;;8.10;5.60;;;21.60;97.30;;;;;;4937200;29;20467;-73
2021/06/12 12:14:27;;;;;;;8.17;4.97;;;21.60;97.30;;;;;;4936835;29;20423;-76
2021/06/12 12:16:53;;;;;;;8.10;4.93;;;21.70;97.30;;;;;;4954532;29;20442;-74
2021/06/12 12:19:19;;;;;;;9.13;5.10;;;21.70;97.30;;;;;;4928185;29;20840;-76
2021/06/12 12:21:55;;;;;;;7.33;5.60;;;21.80;97.30;;;;;;4900701;29;20200;-76
2021/06/12 12:24:22;;;;;;;8.83;5.40;;;21.80;97.30;;;;;;4928035;29;20173;-77
2021/06/12 12:27:03;;;;;;;5.30;4.73;;;21.90;97.30;;;;;;4904593;29;20432;-79
2021/06/12 12:29:32;;;;;;;10.60;5.80;;;22.00;97.30;;;;;;4912538;29;20433;-76
2021/06/12 12:32:01;;;;;;;5.50;4.50;;;22.00;97.30;;;;;;4925256;29;20465;-78
2021/06/12 12:34:33;;;;;;;7.97;5.60;;;21.90;97.30;;;;;;4909141;29;20424;-77
2021/06/12 12:36:59;;;;;;;8.70;5.57;;;21.90;97.30;;;;;;4927438;29;20421;-75
2021/06/12 12:39:36;;;;;;;7.43;5.10;;;21.90;97.30;;;;;;4908550;29;20463;-77
2021/06/12 12:42:01;;;;;;;8.40;5.70;;;22.00;97.30;;;;;;4905865;29;20444;-75
2021/06/12 12:44:27;;;;;;;8.57;5.77;;;22.00;97.30;;;;;;4909222;29;20446;-76
2021/06/12 12:46:54;;;;;;;7.90;5.60;;;21.90;97.30;;;;;;4907808;29;20569;-76
2021/06/12 12:49:29;;;;;;;9.40;6.20;;;21.90;97.30;;;;;;4907770;29;20420;-76
2021/06/12 12:52:03;;;;;;;8.07;6.20;;;21.80;97.30;;;;;;4901329;29;20483;-75
2021/06/12 12:54:32;;;;;;;11.93;6.70;;;21.70;97.30;;;;;;4914045;29;20777;-75
2021/06/12 12:57:04;;;;;;;9.57;6.50;;;21.60;97.30;;;;;;4900747;29;20507;-74
2021/06/12 12:59:37;;;;;;;8.80;6.70;;;21.50;97.30;;;;;;4913120;29;20436;-74
2021/06/12 13:02:07;;;;;;;8.87;6.50;;;21.40;97.30;;;;;;4903920;29;21034;-75
2021/06/12 13:04:44;;;;;;;10.17;6.90;;;21.40;97.30;;;;;;4915212;29;20463;-74
2021/06/12 13:07:18;;;;;;;10.50;7.00;;;21.40;97.30;;;;;;4898101;29;20420;-75
2021/06/12 13:10:16;;;;;;;11.37;7.30;;;21.50;97.30;;;;;;4897303;29;20497;-74
2021/06/12 13:12:56;;;;;;;10.93;7.17;;;21.70;97.30;;;;;;4908540;29;20452;-74
2021/06/12 13:15:22;;;;;;;7.83;6.57;;;21.90;97.30;;;;;;4914584;29;20846;-74
2021/06/12 13:17:48;;;;;;;9.40;5.90;;;22.10;97.30;;;;;;4900797;29;20420;-74
2021/06/12 13:20:21;;;;;;;10.33;6.30;;;22.20;97.30;;;;;;4916988;29;20274;-74
2021/06/12 13:22:47;;;;;;;5.70;5.40;;;22.20;97.30;;;;;;4898881;29;20210;-75
2021/06/12 13:25:13;;;;;;;7.67;6.23;;;22.20;97.30;;;;;;4904672;29;20523;-75
2021/06/12 13:27:40;;;;;;;9.93;5.00;;;22.30;97.30;;;;;;4911287;29;20188;-74
2021/06/12 13:30:08;;;;;;;6.20;5.00;;;22.20;97.30;;;;;;4921148;29;20199;-75